createdAt,value
2022-11-01T00:01:21.027Z,3.60
2022-11-01T00:03:48.892Z,3.67
2022-11-01T00:06:16.863Z,4.17
2022-11-01T00:08:44.778Z,3.93
2022-11-01T00:11:15.120Z,4.00
2022-11-01T00:13:46.411Z,4.10
2022-11-01T00:16:14.374Z,4.47
2022-11-01T00:18:43.005Z,3.87
2022-11-01T00:21:11.206Z,3.60
2022-11-01T00:23:39.645Z,3.90
2022-11-01T00:26:08.343Z,3.87
2022-11-01T00:28:36.181Z,3.83
2022-11-01T00:31:07.656Z,3.83
2022-11-01T00:33:38.427Z,3.70
2022-11-01T00:36:07.477Z,3.77
2022-11-01T00:38:35.404Z,3.50
2022-11-01T00:41:04.093Z,3.93
2022-11-01T00:43:32.414Z,3.30
2022-11-01T00:46:01.349Z,4.30
2022-11-01T00:48:30.861Z,4.07
2022-11-01T00:51:02.905Z,3.90
2022-11-01T00:53:30.808Z,3.53
2022-11-01T00:56:01.173Z,3.63
2022-11-01T00:58:29.053Z,4.07
2022-11-01T01:00:57.320Z,3.50
2022-11-01T01:03:25.573Z,3.87
2022-11-01T01:05:55.682Z,3.73
2022-11-01T01:08:24.335Z,3.60
2022-11-01T01:10:52.735Z,3.50
2022-11-01T01:13:21.415Z,4.20
2022-11-01T01:15:49.486Z,3.60
2022-11-01T01:18:17.681Z,3.70
2022-11-01T01:20:46.057Z,3.87
2022-11-01T01:23:15.269Z,4.00
2022-11-01T01:25:43.767Z,4.00
2022-11-01T01:28:11.703Z,4.07
2022-11-01T01:30:41.908Z,4.50
2022-11-01T01:35:39.672Z,3.23
2022-11-01T01:38:07.691Z,3.50
2022-11-01T01:40:37.052Z,3.60
2022-11-01T01:43:04.935Z,3.43
2022-11-01T01:45:37.160Z,3.10
2022-11-01T01:48:17.862Z,2.97
2022-11-01T01:50:50.066Z,3.47
2022-11-01T01:53:23.130Z,3.43
2022-11-01T01:55:57.620Z,3.43
2022-11-01T01:58:29.135Z,3.73
2022-11-01T02:00:57.329Z,3.53
2022-11-01T02:03:29.170Z,3.00
2022-11-01T02:06:00.520Z,3.50
2022-11-01T02:08:28.856Z,2.80
2022-11-01T02:11:01.789Z,2.90
2022-11-01T02:13:30.322Z,2.77
2022-11-01T02:16:22.880Z,3.03
2022-11-01T02:19:02.363Z,2.83
2022-11-01T02:21:57.602Z,3.10
2022-11-01T02:25:10.511Z,3.00
2022-11-01T02:27:59.156Z,3.27
2022-11-01T02:30:36.401Z,3.00
2022-11-01T02:33:16.580Z,2.80
2022-11-01T02:35:53.283Z,3.10
2022-11-01T02:38:27.662Z,2.73
2022-11-01T02:41:04.365Z,3.03
2022-11-01T02:43:37.116Z,2.93
2022-11-01T02:46:21.155Z,2.53
2022-11-01T02:48:51.260Z,2.83
2022-11-01T02:51:20.997Z,3.20
2022-11-01T02:53:48.869Z,2.60
2022-11-01T02:56:19.045Z,2.90
2022-11-01T02:58:48.834Z,3.20
2022-11-01T03:01:24.691Z,2.73
2022-11-01T03:03:57.142Z,2.87
2022-11-01T03:06:28.581Z,3.03
2022-11-01T03:09:00.666Z,3.13
2022-11-01T03:11:36.091Z,2.60
2022-11-01T03:14:12.585Z,2.80
2022-11-01T03:16:48.986Z,2.60
2022-11-01T03:19:33.817Z,2.97
2022-11-01T03:22:07.795Z,2.60
2022-11-01T03:24:41.839Z,2.80
2022-11-01T03:27:14.882Z,2.50
2022-11-01T03:29:46.921Z,2.57
2022-11-01T03:32:17.902Z,2.77
2022-11-01T03:34:47.728Z,2.67
2022-11-01T03:37:16.388Z,2.50
2022-11-01T03:39:49.358Z,2.87
2022-11-01T03:42:20.065Z,3.30
2022-11-01T03:44:50.887Z,2.50
2022-11-01T03:47:19.443Z,2.90
2022-11-01T03:49:48.656Z,2.60
2022-11-01T03:52:16.618Z,2.53
2022-11-01T03:54:44.592Z,2.70
2022-11-01T03:57:12.466Z,2.90
2022-11-01T03:59:40.613Z,2.73
2022-11-01T04:04:41.694Z,2.63
2022-11-01T04:07:10.895Z,2.57
2022-11-01T04:09:38.857Z,2.90
2022-11-01T04:12:07.314Z,2.33
2022-11-01T04:14:54.969Z,2.70
2022-11-01T04:17:51.866Z,2.23
2022-11-01T04:20:36.541Z,2.70
2022-11-01T04:23:07.318Z,2.13
2022-11-01T04:25:35.637Z,2.87
2022-11-01T04:28:03.461Z,2.40
2022-11-01T04:30:31.738Z,2.40
2022-11-01T04:32:59.927Z,2.40
2022-11-01T04:35:29.041Z,2.70
2022-11-01T04:37:58.107Z,2.13
2022-11-01T04:40:27.471Z,2.20
2022-11-01T04:42:55.334Z,2.37
2022-11-01T04:45:23.201Z,2.40
2022-11-01T04:48:02.745Z,2.40
2022-11-01T04:50:30.965Z,2.47
2022-11-01T04:52:59.704Z,2.27
2022-11-01T04:55:29.435Z,2.23
2022-11-01T04:57:57.398Z,2.50
2022-11-01T05:00:25.859Z,2.33
2022-11-01T05:03:01.053Z,2.63
2022-11-01T05:05:29.381Z,2.17
2022-11-01T05:10:37.378Z,2.33
2022-11-01T05:13:06.388Z,2.30
2022-11-01T05:15:39.980Z,2.60
2022-11-01T05:18:11.900Z,2.40
2022-11-01T05:20:39.747Z,2.60
2022-11-01T05:23:07.861Z,2.50
2022-11-01T05:25:38.313Z,2.50
2022-11-01T05:28:08.526Z,2.40
2022-11-01T05:30:37.693Z,2.63
2022-11-01T05:33:07.164Z,2.30
2022-11-01T05:35:36.386Z,2.73
2022-11-01T05:38:05.610Z,2.30
2022-11-01T05:40:33.733Z,2.53
2022-11-01T05:43:03.440Z,2.50
2022-11-01T05:45:31.609Z,2.40
2022-11-01T05:48:04.253Z,2.30
2022-11-01T05:50:32.242Z,2.23
2022-11-01T05:53:06.154Z,2.20
2022-11-01T05:55:34.074Z,2.07
2022-11-01T05:58:03.478Z,1.90
2022-11-01T06:00:31.366Z,1.63
2022-11-01T06:02:59.545Z,2.40
2022-11-01T06:05:28.353Z,1.90
2022-11-01T06:07:56.455Z,1.90
2022-11-01T06:10:24.630Z,1.77
2022-11-01T06:12:52.497Z,1.90
2022-11-01T06:15:21.938Z,1.77
2022-11-01T06:17:50.177Z,2.10
2022-11-01T06:20:18.169Z,1.60
2022-11-01T06:22:46.171Z,1.60
2022-11-01T06:25:13.992Z,1.90
2022-11-01T06:27:41.861Z,1.83
2022-11-01T06:30:11.319Z,1.70
2022-11-01T06:32:40.574Z,1.93
2022-11-01T06:35:09.128Z,1.50
2022-11-01T06:37:38.073Z,1.70
2022-11-01T06:40:07.424Z,1.53
2022-11-01T06:42:35.308Z,1.67
2022-11-01T06:45:03.668Z,1.30
2022-11-01T06:47:31.628Z,1.47
2022-11-01T06:50:00.848Z,1.30
2022-11-01T06:52:28.830Z,1.60
2022-11-01T06:54:56.694Z,1.30
2022-11-01T06:57:24.609Z,1.33
2022-11-01T06:59:52.525Z,0.97
2022-11-01T07:02:23.423Z,1.60
2022-11-01T07:04:55.757Z,1.20
2022-11-01T07:07:25.013Z,1.00
2022-11-01T07:09:53.057Z,1.10
2022-11-01T07:12:20.937Z,0.87
2022-11-01T07:14:48.733Z,1.17
2022-11-01T07:17:16.720Z,1.43
2022-11-01T07:19:44.605Z,1.10
2022-11-01T07:22:12.523Z,1.43
2022-11-01T07:24:41.785Z,1.63
2022-11-01T07:27:09.654Z,1.10
2022-11-01T07:29:37.706Z,1.10
2022-11-01T07:32:05.864Z,1.00
2022-11-01T07:34:33.779Z,1.20
2022-11-01T07:37:02.833Z,1.43
2022-11-01T07:39:30.679Z,1.10
2022-11-01T07:42:00.857Z,1.20
2022-11-01T07:44:28.718Z,1.30
2022-11-01T07:46:56.604Z,1.10
2022-11-01T07:49:24.453Z,0.80
2022-11-01T07:51:52.412Z,1.20
2022-11-01T07:54:20.349Z,1.10
2022-11-01T07:56:49.149Z,1.13
2022-11-01T07:59:18.434Z,1.10
2022-11-01T08:01:46.324Z,1.43
2022-11-01T08:04:14.576Z,0.93
2022-11-01T08:06:43.531Z,1.10
2022-11-01T08:09:12.734Z,1.23
2022-11-01T08:11:40.619Z,1.70
2022-11-01T08:14:12.125Z,1.50
2022-11-01T08:16:41.665Z,1.50
2022-11-01T08:19:09.766Z,1.47
2022-11-01T08:21:37.602Z,1.40
2022-11-01T08:24:05.727Z,1.60
2022-11-01T08:26:33.593Z,2.00
2022-11-01T08:29:01.537Z,1.73
2022-11-01T08:31:31.727Z,1.60
2022-11-01T08:34:00.938Z,2.03
2022-11-01T08:36:28.780Z,1.60
2022-11-01T08:38:57.514Z,1.63
2022-11-01T08:41:25.429Z,1.40
2022-11-01T08:43:53.256Z,1.77
2022-11-01T08:46:21.195Z,1.57
2022-11-01T08:48:52.202Z,1.50
2022-11-01T08:51:25.733Z,1.80
2022-11-01T08:53:55.883Z,1.90
2022-11-01T08:56:24.647Z,1.80
2022-11-01T08:58:53.006Z,1.67
2022-11-01T09:01:21.542Z,1.70
2022-11-01T09:03:49.509Z,2.00
2022-11-01T09:06:19.270Z,2.00
2022-11-01T09:08:48.698Z,1.40
2022-11-01T09:11:16.742Z,1.30
2022-11-01T09:13:44.847Z,1.30
2022-11-01T09:16:12.986Z,1.50
2022-11-01T09:18:41.016Z,1.77
2022-11-01T09:21:08.874Z,1.43
2022-11-01T09:23:37.535Z,1.00
2022-11-01T09:26:08.306Z,1.20
2022-11-01T09:28:36.655Z,1.40
2022-11-01T09:31:20.058Z,1.60
2022-11-01T09:33:49.365Z,1.77
2022-11-01T09:36:17.444Z,1.43
2022-11-01T09:38:45.303Z,1.70
2022-11-01T09:41:25.574Z,1.30
2022-11-01T09:43:54.772Z,1.40
2022-11-01T09:46:27.651Z,1.37
2022-11-01T09:48:57.357Z,1.50
2022-11-01T09:51:26.278Z,1.50
2022-11-01T09:53:57.476Z,1.30
2022-11-01T09:56:30.412Z,1.60
2022-11-01T09:59:07.070Z,1.30
2022-11-01T10:01:42.968Z,1.77
2022-11-01T10:04:33.834Z,1.37
2022-11-01T10:07:07.254Z,1.30
2022-11-01T10:09:44.941Z,1.40
2022-11-01T10:12:36.094Z,1.33
2022-11-01T10:15:18.650Z,1.40
2022-11-01T10:17:52.625Z,1.30
2022-11-01T10:20:22.579Z,1.33
2022-11-01T10:22:51.538Z,1.20
2022-11-01T10:25:23.241Z,1.10
2022-11-01T10:28:00.306Z,0.73
2022-11-01T10:30:34.054Z,1.20
2022-11-01T10:33:12.248Z,1.30
2022-11-01T10:35:44.316Z,1.10
2022-11-01T10:38:41.526Z,1.20
2022-11-01T10:41:21.239Z,1.50
2022-11-01T10:43:53.848Z,1.00
2022-11-01T10:46:25.891Z,1.30
2022-11-01T10:48:56.594Z,1.40
2022-11-01T10:51:28.136Z,1.83
2022-11-01T10:54:00.009Z,1.50
2022-11-01T10:56:30.665Z,1.20
2022-11-01T10:59:04.375Z,1.30
2022-11-01T11:01:39.029Z,1.20
2022-11-01T11:04:10.797Z,1.40
2022-11-01T11:06:40.927Z,1.60
2022-11-01T11:09:18.450Z,1.20
2022-11-01T11:11:48.516Z,1.50
2022-11-01T11:14:21.215Z,1.33
2022-11-01T11:16:52.801Z,1.43
2022-11-01T11:19:26.117Z,1.20
2022-11-01T11:21:55.345Z,1.40
2022-11-01T11:24:25.499Z,1.60
2022-11-01T11:26:55.950Z,1.53
2022-11-01T11:29:41.679Z,1.27
2022-11-01T11:32:17.174Z,1.50
2022-11-01T11:34:45.690Z,1.50
2022-11-01T11:37:21.349Z,1.87
2022-11-01T11:40:07.370Z,1.53
2022-11-01T11:42:35.741Z,1.57
2022-11-01T11:45:19.059Z,1.30
2022-11-01T11:47:47.930Z,1.53
2022-11-01T11:50:25.609Z,1.57
2022-11-01T11:53:02.633Z,1.50
2022-11-01T11:55:43.463Z,1.40
2022-11-01T11:58:26.757Z,1.83
2022-11-01T12:01:01.393Z,1.67
2022-11-01T12:03:29.677Z,1.37
2022-11-01T12:06:00.669Z,1.20
2022-11-01T12:08:44.834Z,1.40
2022-11-01T12:11:13.871Z,1.70
2022-11-01T12:13:44.270Z,1.50
2022-11-01T12:16:25.350Z,1.40
2022-11-01T12:18:55.837Z,1.23
2022-11-01T12:21:27.013Z,1.57
2022-11-01T12:24:03.694Z,1.90
2022-11-01T12:26:34.987Z,1.23
2022-11-01T12:29:14.559Z,1.20
2022-11-01T12:31:45.565Z,1.90
2022-11-01T12:34:20.255Z,1.60
2022-11-01T12:36:55.017Z,2.00
2022-11-01T12:39:41.203Z,1.43
2022-11-01T12:42:13.102Z,1.67
2022-11-01T12:44:44.555Z,1.90
2022-11-01T12:47:19.038Z,1.60
2022-11-01T12:49:55.646Z,1.53
2022-11-01T12:52:31.296Z,1.63
2022-11-01T12:55:05.185Z,1.30
2022-11-01T12:57:33.698Z,1.77
2022-11-01T13:00:02.606Z,1.20
2022-11-01T13:02:43.491Z,2.10
2022-11-01T13:05:17.114Z,1.90
2022-11-01T13:07:57.131Z,1.50
2022-11-01T13:10:34.304Z,1.57
2022-11-01T13:13:13.250Z,1.40
2022-11-01T13:15:53.386Z,1.57
2022-11-01T13:18:31.331Z,1.40
2022-11-01T13:21:07.171Z,1.40
2022-11-01T13:23:38.802Z,1.37
2022-11-01T13:26:16.493Z,1.40
2022-11-01T13:29:07.577Z,1.20
2022-11-01T13:31:46.754Z,1.80
2022-11-01T13:34:29.087Z,1.50
2022-11-01T13:37:05.301Z,1.40
2022-11-01T13:39:43.675Z,1.70
2022-11-01T13:42:16.063Z,1.13
2022-11-01T13:44:49.551Z,1.47
2022-11-01T13:47:28.833Z,1.50
2022-11-01T13:50:31.317Z,1.30
2022-11-01T13:53:05.190Z,1.57
2022-11-01T13:55:39.022Z,1.30
2022-11-01T13:58:07.767Z,1.33
2022-11-01T14:00:40.872Z,1.70
2022-11-01T14:03:23.654Z,1.13
2022-11-01T14:06:24.874Z,1.30
2022-11-01T14:09:20.567Z,1.17
2022-11-01T14:11:50.410Z,1.13
2022-11-01T14:14:50.463Z,1.30
2022-11-01T14:17:55.846Z,1.53
2022-11-01T14:20:47.962Z,1.47
2022-11-01T14:23:52.568Z,1.30
2022-11-01T14:27:01.565Z,2.07
2022-11-01T14:29:30.188Z,1.77
2022-11-01T14:31:59.350Z,1.27
2022-11-01T14:34:35.343Z,1.67
2022-11-01T14:37:21.563Z,1.50
2022-11-01T14:40:04.871Z,1.30
2022-11-01T14:42:45.122Z,1.20
2022-11-01T14:45:28.001Z,1.37
2022-11-01T14:48:00.163Z,1.23
2022-11-01T14:50:33.917Z,1.87
2022-11-01T14:53:08.121Z,1.40
2022-11-01T14:55:38.474Z,1.40
2022-11-01T14:58:19.423Z,1.50
2022-11-01T15:00:48.779Z,1.40
2022-11-01T15:03:17.652Z,1.40
2022-11-01T15:05:49.186Z,1.40
2022-11-01T15:08:26.868Z,1.50
2022-11-01T15:10:56.786Z,1.93
2022-11-01T15:13:28.709Z,1.90
2022-11-01T15:16:12.682Z,1.10
2022-11-01T15:18:46.935Z,1.60
2022-11-01T15:21:22.197Z,1.47
2022-11-01T15:23:54.949Z,1.43
2022-11-01T15:26:27.524Z,1.40
2022-11-01T15:28:59.979Z,1.20
2022-11-01T15:31:28.028Z,1.57
2022-11-01T15:33:58.282Z,1.40
2022-11-01T15:36:31.420Z,1.50
2022-11-01T15:39:00.582Z,1.53
2022-11-01T15:41:32.885Z,1.50
2022-11-01T15:44:03.330Z,1.70
2022-11-01T15:46:33.906Z,1.30
2022-11-01T15:49:07.262Z,1.53
2022-11-01T15:51:40.233Z,1.30
2022-11-01T15:54:16.029Z,2.10
2022-11-01T15:56:47.637Z,2.07
2022-11-01T15:59:31.605Z,1.60
2022-11-01T16:02:02.941Z,2.17
2022-11-01T16:04:37.320Z,1.93
2022-11-01T16:07:07.689Z,1.73
2022-11-01T16:09:40.023Z,1.77
2022-11-01T16:12:17.942Z,1.67
2022-11-01T16:14:53.320Z,2.10
2022-11-01T16:17:25.253Z,1.90
2022-11-01T16:19:54.062Z,1.63
2022-11-01T16:22:36.997Z,1.60
2022-11-01T16:25:18.753Z,2.13
2022-11-01T16:28:02.420Z,1.47
2022-11-01T16:30:45.283Z,1.90
2022-11-01T16:33:42.813Z,1.80
2022-11-01T16:36:33.575Z,1.50
2022-11-01T16:39:01.463Z,1.80
2022-11-01T16:41:39.840Z,2.00
2022-11-01T16:44:14.709Z,1.60
2022-11-01T16:46:44.282Z,1.70
2022-11-01T16:49:20.953Z,1.60
2022-11-01T16:51:48.852Z,1.47
2022-11-01T16:54:17.104Z,1.83
2022-11-01T16:56:49.005Z,1.90
2022-11-01T16:59:32.535Z,1.93
2022-11-01T17:02:13.720Z,2.00
2022-11-01T17:04:42.413Z,1.50
2022-11-01T17:07:11.871Z,1.73
2022-11-01T17:09:40.266Z,1.70
2022-11-01T17:12:08.718Z,1.70
2022-11-01T17:14:37.522Z,2.10
2022-11-01T17:17:11.553Z,1.80
2022-11-01T17:19:42.253Z,1.67
2022-11-01T17:22:15.885Z,1.80
2022-11-01T17:24:43.775Z,1.93
2022-11-01T17:27:11.663Z,1.63
2022-11-01T17:29:39.541Z,2.13
2022-11-01T17:32:10.960Z,2.27
2022-11-01T17:34:39.320Z,1.87
2022-11-01T17:37:07.707Z,1.87
2022-11-01T17:39:35.568Z,2.30
2022-11-01T17:42:03.466Z,2.00
2022-11-01T17:44:31.335Z,1.90
2022-11-01T17:47:00.601Z,1.80
2022-11-01T17:49:29.902Z,2.10
2022-11-01T17:51:58.268Z,2.13
2022-11-01T17:56:59.125Z,2.03
2022-11-01T17:59:27.365Z,2.13
2022-11-01T18:02:02.330Z,1.73
2022-11-01T18:04:35.591Z,2.10
2022-11-01T18:07:06.455Z,2.13
2022-11-01T18:09:35.533Z,2.47
2022-11-01T18:12:08.461Z,2.33
2022-11-01T18:14:48.852Z,1.90
2022-11-01T18:17:32.746Z,2.17
2022-11-01T18:20:09.637Z,2.70
2022-11-01T18:22:45.214Z,2.07
2022-11-01T18:25:28.287Z,2.07
2022-11-01T18:28:00.034Z,1.60
2022-11-01T18:30:28.636Z,2.17
2022-11-01T18:33:01.851Z,1.90
2022-11-01T18:35:35.495Z,2.20
2022-11-01T18:38:14.767Z,1.97
2022-11-01T18:40:51.599Z,1.50
2022-11-01T18:43:21.192Z,2.30
2022-11-01T18:46:11.542Z,2.20
2022-11-01T18:48:38.386Z,2.60
2022-11-01T18:51:14.034Z,2.87
2022-11-01T18:53:42.030Z,2.23
2022-11-01T18:56:21.117Z,2.30
2022-11-01T18:58:50.786Z,2.33
2022-11-01T19:01:20.258Z,2.00
2022-11-01T19:03:55.701Z,2.17
2022-11-01T19:06:27.111Z,2.43
2022-11-01T19:08:57.034Z,2.27
2022-11-01T19:11:27.312Z,2.30
2022-11-01T19:13:58.022Z,2.20
2022-11-01T19:16:26.257Z,1.97
2022-11-01T19:18:54.178Z,2.17
2022-11-01T19:21:25.226Z,2.13
2022-11-01T19:23:55.019Z,2.27
2022-11-01T19:26:26.766Z,1.77
2022-11-01T19:28:55.130Z,2.03
2022-11-01T19:31:27.238Z,2.20
2022-11-01T19:33:58.009Z,2.13
2022-11-01T19:39:21.269Z,2.10
2022-11-01T19:41:49.845Z,2.20
2022-11-01T19:44:20.964Z,2.00
2022-11-01T19:46:52.136Z,1.90
2022-11-01T19:49:25.281Z,2.00
2022-11-01T19:52:06.995Z,2.37
2022-11-01T19:54:37.152Z,2.17
2022-11-01T19:57:21.230Z,1.90
2022-11-01T19:59:49.441Z,2.27
2022-11-01T20:02:22.456Z,2.33
2022-11-01T20:04:56.227Z,2.33
2022-11-01T20:07:28.016Z,2.53
2022-11-01T20:09:58.767Z,2.53
2022-11-01T20:12:26.825Z,2.10
2022-11-01T20:14:54.673Z,2.10
2022-11-01T20:17:22.551Z,2.10
2022-11-01T20:19:50.389Z,2.30
2022-11-01T20:22:20.533Z,2.50
2022-11-01T20:24:52.294Z,2.37
2022-11-01T20:27:20.191Z,2.00
2022-11-01T20:29:50.178Z,2.27
2022-11-01T20:32:18.067Z,2.27
2022-11-01T20:34:45.914Z,2.00
2022-11-01T20:37:29.389Z,2.17
2022-11-01T20:39:58.811Z,2.03
2022-11-01T20:42:26.643Z,2.13
2022-11-01T20:44:54.545Z,2.00
2022-11-01T20:47:22.403Z,1.87
2022-11-01T20:49:50.261Z,1.80
2022-11-01T20:55:09.513Z,2.17
2022-11-01T20:57:37.631Z,2.23
2022-11-01T21:00:06.503Z,2.50
2022-11-01T21:02:34.579Z,2.00
2022-11-01T21:05:07.878Z,2.17
2022-11-01T21:07:35.843Z,2.10
2022-11-01T21:10:03.836Z,1.90
2022-11-01T21:12:44.220Z,2.33
2022-11-01T21:15:36.266Z,1.93
2022-11-01T21:18:34.899Z,1.83
2022-11-01T21:21:34.173Z,1.80
2022-11-01T21:24:24.573Z,1.80
2022-11-01T21:26:56.005Z,1.93
2022-11-01T21:29:29.316Z,1.70
2022-11-01T21:31:57.751Z,2.33
2022-11-01T21:34:28.894Z,2.10
2022-11-01T21:36:58.850Z,2.30
2022-11-01T21:39:28.668Z,1.87
2022-11-01T21:41:58.077Z,1.97
2022-11-01T21:44:29.785Z,2.30
2022-11-01T21:46:59.521Z,2.07
2022-11-01T21:49:29.669Z,2.10
2022-11-01T21:52:00.449Z,1.53
2022-11-01T21:54:30.139Z,2.07
2022-11-01T21:56:58.603Z,2.20
2022-11-01T21:59:28.571Z,2.33
2022-11-01T22:01:57.930Z,2.20
2022-11-01T22:04:28.701Z,2.03
2022-11-01T22:06:56.943Z,2.37
2022-11-01T22:09:25.110Z,2.20
2022-11-01T22:11:53.146Z,1.77
2022-11-01T22:14:21.374Z,2.30
2022-11-01T22:16:50.572Z,2.07
2022-11-01T22:19:18.522Z,1.97
2022-11-01T22:24:19.230Z,2.03
2022-11-01T22:26:47.060Z,2.30
2022-11-01T22:29:14.963Z,1.57
2022-11-01T22:31:42.841Z,2.33
2022-11-01T22:34:13.550Z,1.70
2022-11-01T22:36:42.739Z,1.97
2022-11-01T22:39:17.477Z,1.57
2022-11-01T22:41:45.810Z,1.60
2022-11-01T22:44:15.268Z,1.50
2022-11-01T22:46:47.655Z,2.00
2022-11-01T22:49:21.325Z,2.00
2022-11-01T22:51:51.302Z,1.77
2022-11-01T22:54:31.104Z,2.43
2022-11-01T22:57:02.629Z,2.13
2022-11-01T22:59:34.086Z,1.93
2022-11-01T23:02:21.066Z,2.30
2022-11-01T23:04:50.640Z,1.63
2022-11-01T23:07:27.113Z,1.73
2022-11-01T23:10:04.956Z,2.13
2022-11-01T23:12:51.510Z,1.90
2022-11-01T23:15:27.850Z,2.33
2022-11-01T23:18:01.334Z,2.00
2022-11-01T23:20:30.776Z,2.00
2022-11-01T23:23:00.799Z,1.90
2022-11-01T23:25:30.220Z,2.07
2022-11-01T23:27:58.095Z,2.03
2022-11-01T23:30:26.233Z,1.77
2022-11-01T23:32:54.212Z,2.23
2022-11-01T23:35:22.626Z,1.97
2022-11-01T23:37:54.555Z,2.13
2022-11-01T23:40:24.493Z,2.27
2022-11-01T23:42:52.352Z,2.00
2022-11-01T23:45:29.707Z,2.30
2022-11-01T23:47:57.936Z,2.27
2022-11-01T23:50:31.133Z,1.90
2022-11-01T23:53:03.093Z,1.87
2022-11-01T23:55:34.482Z,2.13
2022-11-01T23:58:05.793Z,1.80
